Time;durP1;ratioP1;P1;durP2;ratioP2;P2;SDS_P1;SDS_P2;PMS_P1;PMS_P2;Temp;Humidity;BMP_temperature;BMP_pressure;BME280_temperature;BME280_humidity;BME280_pressure;Samples;Min_cycle;Max_cycle;Signal;HPM_P1;HPM_P2
2023/12/21 00:00:31;;;;;;;;;;;;;;;17.96;63.61;100049.81;7393658;19;1389;-39
2023/12/21 00:02:59;;;;;;;;;;;;;;;18.23;63.34;100063.25;7392749;19;1492;-39
2023/12/21 00:05:30;;;;;;;;;;;;;;;18.35;62.43;100049.69;7392128;19;1527;-39
2023/12/21 00:07:58;;;;;;;;;;;;;;;18.45;62.32;100034.41;7392629;19;1470;-39
2023/12/21 00:10:27;;;;;;;;;;;;;;;18.53;62.23;100057.75;7391335;19;1483;-40
2023/12/21 00:12:56;;;;;;;;;;;;;;;18.54;61.97;100052.22;7393473;19;1856;-40
2023/12/21 00:15:24;;;;;;;;;;;;;;;18.48;62.22;100042.13;7393672;19;1452;-40
2023/12/21 00:17:52;;;;;;;;;;;;;;;18.58;62.04;100052.78;7392720;19;1542;-45
2023/12/21 00:20:21;;;;;;;;;;;;;;;18.57;61.94;100054.63;7391828;19;1863;-40
2023/12/21 00:22:52;;;;;;;;;;;;;;;18.57;61.72;100051.09;7392018;19;1544;-40
2023/12/21 00:25:20;;;;;;;;;;;;;;;18.63;61.95;100056.69;7391447;19;1388;-39
2023/12/21 00:27:49;;;;;;;;;;;;;;;18.50;62.12;100072.25;7392677;19;1503;-40
2023/12/21 00:30:17;;;;;;;;;;;;;;;18.42;62.44;100062.31;7391282;19;1333;-39
2023/12/21 00:32:45;;;;;;;;;;;;;;;18.24;62.74;100059.59;7392053;19;1533;-43
2023/12/21 00:35:14;;;;;;;;;;;;;;;18.03;62.98;100073.19;7389132;19;1900;-40
2023/12/21 00:37:42;;;;;;;;;;;;;;;17.92;63.93;100077.84;7392250;19;1517;-40
2023/12/21 00:40:14;;;;;;;;;;;;;;;17.84;64.13;100079.41;7392357;19;1504;-39
2023/12/21 00:42:42;;;;;;;;;;;;;;;17.81;64.32;100082.38;7392309;19;1365;-38
2023/12/21 00:45:11;;;;;;;;;;;;;;;17.73;64.18;100071.53;7392738;19;1427;-38
2023/12/21 00:47:39;;;;;;;;;;;;;;;17.73;64.21;100074.22;7392679;19;1365;-39
2023/12/21 00:50:08;;;;;;;;;;;;;;;17.68;64.37;100071.97;7392241;19;1866;-39
2023/12/21 00:52:37;;;;;;;;;;;;;;;17.67;64.50;100070.28;7377255;19;1570;-40
2023/12/21 00:55:05;;;;;;;;;;;;;;;17.60;64.47;100065.66;7389807;19;1861;-40
2023/12/21 00:57:36;;;;;;;;;;;;;;;17.50;64.81;100071.00;7392115;19;1412;-40
2023/12/21 01:00:05;;;;;;;;;;;;;;;17.65;64.31;100071.44;7390881;19;1198;-38
2023/12/21 01:02:33;;;;;;;;;;;;;;;17.99;63.75;100087.00;7391472;19;1520;-38
2023/12/21 01:05:01;;;;;;;;;;;;;;;18.21;63.08;100081.28;7390756;19;1608;-39
2023/12/21 01:07:30;;;;;;;;;;;;;;;18.36;62.67;100083.47;7391724;19;1404;-38
2023/12/21 01:09:58;;;;;;;;;;;;;;;18.45;62.25;100074.56;7391728;19;1464;-38
2023/12/21 01:12:31;;;;;;;;;;;;;;;18.54;61.96;100060.25;7391836;19;1582;-38
2023/12/21 01:15:02;;;;;;;;;;;;;;;18.49;61.89;100073.25;7389490;19;1846;-38
2023/12/21 01:17:31;;;;;;;;;;;;;;;18.44;62.15;100070.19;7391271;19;1424;-38
2023/12/21 01:19:59;;;;;;;;;;;;;;;18.44;62.32;100076.41;7387908;19;1404;-38
2023/12/21 01:22:27;;;;;;;;;;;;;;;18.52;61.96;100072.94;7388177;19;1484;-39
2023/12/21 01:24:57;;;;;;;;;;;;;;;18.44;62.33;100080.88;7390098;19;1854;-38
2023/12/21 01:27:25;;;;;;;;;;;;;;;18.20;62.68;100074.22;7390693;19;1507;-39
2023/12/21 01:29:53;;;;;;;;;;;;;;;17.98;63.22;100090.66;7391163;19;1444;-38
2023/12/21 01:32:24;;;;;;;;;;;;;;;17.84;63.60;100073.22;7390890;19;1454;-38
2023/12/21 01:34:53;;;;;;;;;;;;;;;17.73;63.75;100060.00;7389588;19;1842;-38
2023/12/21 01:37:21;;;;;;;;;;;;;;;17.74;63.63;100057.19;7388736;19;1481;-38
2023/12/21 01:39:49;;;;;;;;;;;;;;;17.70;63.67;100061.97;7391078;19;1389;-38
2023/12/21 01:42:17;;;;;;;;;;;;;;;17.65;63.95;100058.06;7390413;19;1886;-38
2023/12/21 01:44:46;;;;;;;;;;;;;;;17.63;63.86;100050.19;7390172;19;1475;-38
2023/12/21 01:47:15;;;;;;;;;;;;;;;17.52;64.40;100057.50;7390322;19;1655;-38
2023/12/21 01:49:47;;;;;;;;;;;;;;;17.74;63.55;100059.84;7389594;19;1392;-38
2023/12/21 01:52:15;;;;;;;;;;;;;;;17.95;63.28;100070.41;7374279;19;1292;-38
2023/12/21 01:54:44;;;;;;;;;;;;;;;18.27;62.41;100069.97;7389050;19;1850;-38
2023/12/21 01:57:12;;;;;;;;;;;;;;;18.33;62.24;100065.88;7389799;19;1497;-38
2023/12/21 01:59:41;;;;;;;;;;;;;;;18.38;62.02;100049.38;7389508;19;1582;-38
2023/12/21 02:02:09;;;;;;;;;;;;;;;18.15;62.44;100055.09;7388229;19;1497;-38
2023/12/21 02:04:37;;;;;;;;;;;;;;;17.88;62.92;100048.72;7390526;19;1392;-39
2023/12/21 02:07:08;;;;;;;;;;;;;;;17.76;63.36;100044.50;7386537;19;1849;-39
2023/12/21 02:09:37;;;;;;;;;;;;;;;17.66;63.80;100049.03;7389027;19;1590;-39
2023/12/21 02:12:05;;;;;;;;;;;;;;;17.60;63.78;100038.91;7389215;19;1766;-38
2023/12/21 02:14:33;;;;;;;;;;;;;;;17.58;63.76;100043.56;7388502;19;1872;-38
2023/12/21 02:17:04;;;;;;;;;;;;;;;17.49;64.05;100056.81;7388152;19;1479;-39
2023/12/21 02:19:33;;;;;;;;;;;;;;;17.62;63.84;100058.34;7389650;19;1489;-38
2023/12/21 02:22:02;;;;;;;;;;;;;;;17.89;63.17;100050.41;7387602;19;1400;-39
2023/12/21 02:24:33;;;;;;;;;;;;;;;18.20;62.35;100054.66;7387637;19;1250;-38
2023/12/21 02:27:02;;;;;;;;;;;;;;;18.25;62.23;100039.84;7389736;19;1416;-38
2023/12/21 02:29:31;;;;;;;;;;;;;;;18.06;62.58;100046.16;7388567;19;1416;-39
2023/12/21 02:31:59;;;;;;;;;;;;;;;17.85;63.28;100059.72;7389191;19;1464;-38
2023/12/21 02:34:27;;;;;;;;;;;;;;;18.01;62.71;100052.91;7395804;19;1839;-38
2023/12/21 02:36:55;;;;;;;;;;;;;;;18.76;60.86;100066.19;7396571;19;1724;-39
2023/12/21 02:39:24;;;;;;;;;;;;;;;19.51;58.92;100041.78;7396658;19;1894;-38
2023/12/21 02:41:55;;;;;;;;;;;;;;;19.81;58.34;100022.56;7396206;19;1594;-38
2023/12/21 02:44:23;;;;;;;;;;;;;;;19.59;58.93;100040.00;7396761;19;1423;-39
2023/12/21 02:46:52;;;;;;;;;;;;;;;19.61;58.87;100047.88;7396742;19;1428;-38
2023/12/21 02:49:20;;;;;;;;;;;;;;;19.66;58.89;100034.84;7396852;19;1396;-38
2023/12/21 02:51:48;;;;;;;;;;;;;;;19.73;58.59;100038.59;7380894;19;1519;-39
2023/12/21 02:54:17;;;;;;;;;;;;;;;19.77;58.58;100037.28;7394819;19;1847;-39
2023/12/21 02:56:45;;;;;;;;;;;;;;;19.71;58.71;100029.88;7396021;19;1528;-39
2023/12/21 02:59:16;;;;;;;;;;;;;;;19.67;58.69;100036.53;7395854;19;1408;-39
2023/12/21 03:01:44;;;;;;;;;;;;;;;19.67;58.81;100025.78;7395138;19;1548;-39
2023/12/21 03:04:14;;;;;;;;;;;;;;;19.71;58.96;100040.59;7395589;19;1357;-39
2023/12/21 03:06:43;;;;;;;;;;;;;;;19.78;58.69;100028.25;7395142;19;1507;-39
2023/12/21 03:09:11;;;;;;;;;;;;;;;19.69;59.06;100021.13;7394495;19;1582;-39
2023/12/21 03:11:40;;;;;;;;;;;;;;;19.84;58.53;100041.03;7394893;19;1467;-39
2023/12/21 03:14:08;;;;;;;;;;;;;;;20.02;58.05;100032.91;7394428;19;1865;-39
2023/12/21 03:16:39;;;;;;;;;;;;;;;20.02;57.84;100034.75;7395105;19;1543;-39
2023/12/21 03:19:07;;;;;;;;;;;;;;;19.98;58.27;100028.88;7395599;19;1522;-39
2023/12/21 03:21:37;;;;;;;;;;;;;;;19.92;58.16;100050.97;7393834;19;1291;-39
2023/12/21 03:24:05;;;;;;;;;;;;;;;19.93;58.31;100059.84;7394048;19;1365;-39
2023/12/21 03:26:34;;;;;;;;;;;;;;;20.02;58.36;100050.88;7394782;19;1486;-39
2023/12/21 03:29:02;;;;;;;;;;;;;;;20.13;57.84;100057.78;7395303;19;1495;-39
2023/12/21 03:31:30;;;;;;;;;;;;;;;20.10;57.91;100047.38;7393953;19;1404;-39
2023/12/21 03:34:01;;;;;;;;;;;;;;;20.09;57.99;100046.53;7394274;19;1873;-39
2023/12/21 03:36:30;;;;;;;;;;;;;;;20.05;57.94;100047.84;7393291;19;1480;-39
2023/12/21 03:38:59;;;;;;;;;;;;;;;20.09;58.10;100062.63;7393746;19;1692;-39
2023/12/21 03:41:27;;;;;;;;;;;;;;;20.10;58.11;100052.75;7393913;19;1480;-39
2023/12/21 03:43:56;;;;;;;;;;;;;;;20.12;58.15;100051.59;7392962;19;1567;-39
2023/12/21 03:46:24;;;;;;;;;;;;;;;20.27;57.53;100116.25;7393090;19;1337;-39
2023/12/21 03:48:53;;;;;;;;;;;;;;;20.16;57.81;100060.16;7394092;19;1511;-39
2023/12/21 03:51:24;;;;;;;;;;;;;;;20.12;57.93;100083.78;7393912;19;1328;-40
2023/12/21 03:53:52;;;;;;;;;;;;;;;20.19;57.76;100081.31;7378654;19;1566;-39
2023/12/21 03:56:21;;;;;;;;;;;;;;;20.23;57.95;100086.22;7392357;19;1844;-39
2023/12/21 03:58:49;;;;;;;;;;;;;;;20.08;58.08;100077.06;7394275;19;1491;-39
2023/12/21 04:01:25;;;;;;;;;;;;;;;19.56;59.58;100093.97;7393172;19;1491;-39
2023/12/21 04:03:53;;;;;;;;;;;;;;;19.07;60.50;100086.31;7394577;19;1388;-39
2023/12/21 04:06:24;;;;;;;;;;;;;;;18.79;61.17;100106.09;7391308;19;1582;-39
2023/12/21 04:08:54;;;;;;;;;;;;;;;18.60;61.78;100107.03;7392896;19;1512;-39
2023/12/21 04:11:22;;;;;;;;;;;;;;;18.39;61.97;100105.44;7393420;19;1512;-39
2023/12/21 04:13:50;;;;;;;;;;;;;;;18.49;62.31;100129.50;7393157;19;1527;-39
2023/12/21 04:16:18;;;;;;;;;;;;;;;18.59;62.04;100105.34;7391507;19;1842;-39
2023/12/21 04:18:47;;;;;;;;;;;;;;;18.78;61.67;100110.59;7393247;19;1499;-39
2023/12/21 04:21:15;;;;;;;;;;;;;;;18.86;61.57;100113.41;7392466;19;1548;-39
2023/12/21 04:23:46;;;;;;;;;;;;;;;18.90;61.26;100113.09;7392048;19;1442;-39
2023/12/21 04:26:20;;;;;;;;;;;;;;;18.94;61.28;100120.69;7393766;19;1522;-39
2023/12/21 04:28:48;;;;;;;;;;;;;;;18.94;61.22;100119.81;7393690;19;1380;-39
2023/12/21 04:31:20;;;;;;;;;;;;;;;18.89;61.03;100106.88;7392723;19;1894;-39
2023/12/21 04:33:50;;;;;;;;;;;;;;;18.93;61.37;100118.16;7392111;19;1570;-40
2023/12/21 04:36:19;;;;;;;;;;;;;;;18.94;61.38;100126.06;7389168;19;2374;-38
2023/12/21 04:38:49;;;;;;;;;;;;;;;18.91;61.23;100120.97;7391811;19;1236;-38
2023/12/21 04:41:18;;;;;;;;;;;;;;;18.93;61.34;100124.34;7392197;19;1489;-38
2023/12/21 04:43:46;;;;;;;;;;;;;;;18.88;61.37;100124.81;7392096;19;1595;-38
2023/12/21 04:46:14;;;;;;;;;;;;;;;19.01;61.18;100126.28;7389222;19;1489;-38
2023/12/21 04:48:43;;;;;;;;;;;;;;;19.29;60.11;100124.38;7391526;19;1434;-39
2023/12/21 04:51:16;;;;;;;;;;;;;;;19.31;60.32;100121.56;7389957;19;1414;-39
2023/12/21 04:53:44;;;;;;;;;;;;;;;19.19;60.53;100139.69;7375405;19;1229;-40
2023/12/21 04:56:15;;;;;;;;;;;;;;;19.13;61.04;100143.00;7388670;19;1885;-38
2023/12/21 04:58:44;;;;;;;;;;;;;;;19.28;60.65;100160.25;7390538;19;1384;-39
2023/12/21 05:01:12;;;;;;;;;;;;;;;19.44;60.29;100141.63;7391109;19;1488;-38
2023/12/21 05:03:40;;;;;;;;;;;;;;;19.22;60.59;100144.78;7389458;19;1511;-39
2023/12/21 05:06:09;;;;;;;;;;;;;;;19.15;60.36;100165.13;7389345;19;1538;-38
2023/12/21 05:08:37;;;;;;;;;;;;;;;19.03;60.99;100178.72;7387474;19;1471;-39
2023/12/21 05:11:06;;;;;;;;;;;;;;;18.97;61.38;100192.72;7390545;19;1798;-40
2023/12/21 05:13:37;;;;;;;;;;;;;;;19.01;61.03;100191.44;7389527;19;1507;-38
2023/12/21 05:16:06;;;;;;;;;;;;;;;19.10;61.12;100204.91;7388972;19;1857;-38
2023/12/21 05:18:34;;;;;;;;;;;;;;;19.01;61.32;100242.34;7390347;19;1294;-39
2023/12/21 05:21:02;;;;;;;;;;;;;;;18.91;61.60;100190.63;7391941;19;1485;-38
2023/12/21 05:23:31;;;;;;;;;;;;;;;18.98;61.38;100197.09;7390685;19;1210;-39
2023/12/21 05:25:59;;;;;;;;;;;;;;;19.02;61.62;100193.13;7391485;19;1837;-39
2023/12/21 05:28:27;;;;;;;;;;;;;;;18.96;61.91;100199.09;7391138;19;1925;-39
2023/12/21 05:30:58;;;;;;;;;;;;;;;18.99;61.79;100193.41;7391642;19;1850;-39
2023/12/21 05:33:26;;;;;;;;;;;;;;;19.02;62.11;100187.75;7391154;19;1401;-38
2023/12/21 05:35:55;;;;;;;;;;;;;;;18.93;62.65;100188.66;7390327;19;1885;-39
2023/12/21 05:38:23;;;;;;;;;;;;;;;19.00;62.86;100197.78;7390934;19;1400;-39
2023/12/21 05:40:51;;;;;;;;;;;;;;;18.96;63.43;100191.03;7390825;19;1484;-40
2023/12/21 05:43:20;;;;;;;;;;;;;;;18.91;63.08;100195.16;7390900;19;1616;-39
2023/12/21 05:45:48;;;;;;;;;;;;;;;19.02;62.83;100203.84;7390660;19;1576;-38
2023/12/21 05:48:19;;;;;;;;;;;;;;;19.08;62.74;100197.88;7390990;19;1817;-38
2023/12/21 05:50:47;;;;;;;;;;;;;;;19.40;62.23;100215.31;7391332;19;1751;-39
2023/12/21 05:53:16;;;;;;;;;;;;;;;19.25;62.66;100198.88;7375469;19;1857;-38
2023/12/21 05:55:44;;;;;;;;;;;;;;;19.03;62.60;100204.69;7390367;19;1853;-39
2023/12/21 05:58:12;;;;;;;;;;;;;;;19.05;62.12;100202.69;7391707;19;1025;-38
2023/12/21 06:00:40;;;;;;;;;;;;;;;19.15;61.86;100194.59;7387242;19;1595;-38
2023/12/21 06:03:09;;;;;;;;;;;;;;;19.12;62.17;100205.59;7387677;19;1850;-39
2023/12/21 06:05:40;;;;;;;;;;;;;;;19.22;61.95;100211.78;7385712;19;1286;-39
2023/12/21 06:08:08;;;;;;;;;;;;;;;19.12;61.95;100198.44;7390963;19;1778;-38
2023/12/21 06:10:37;;;;;;;;;;;;;;;19.15;61.65;100213.34;7397114;19;1258;-39
2023/12/21 06:13:05;;;;;;;;;;;;;;;19.14;61.91;100233.09;7397141;19;1323;-38
2023/12/21 06:15:34;;;;;;;;;;;;;;;19.20;61.78;100198.53;7396734;19;1855;-38
2023/12/21 06:18:02;;;;;;;;;;;;;;;18.96;62.18;100212.47;7397360;19;1535;-38
2023/12/21 06:20:30;;;;;;;;;;;;;;;18.61;63.22;100216.66;7396763;19;1238;-39
2023/12/21 06:23:01;;;;;;;;;;;;;;;18.41;63.73;100215.88;7397362;19;1635;-38
2023/12/21 06:25:30;;;;;;;;;;;;;;;18.26;63.91;100218.19;7396596;19;1564;-38
2023/12/21 06:27:58;;;;;;;;;;;;;;;18.12;64.08;100226.63;7396949;19;1286;-38
2023/12/21 06:30:26;;;;;;;;;;;;;;;18.01;64.33;100221.47;7396725;19;1438;-39
2023/12/21 06:32:54;;;;;;;;;;;;;;;17.97;64.39;100236.13;7397056;19;1525;-39
2023/12/21 06:35:23;;;;;;;;;;;;;;;18.03;64.29;100239.06;7395401;19;1861;-39
2023/12/21 06:37:51;;;;;;;;;;;;;;;18.35;63.82;100242.41;7394201;19;1380;-39
2023/12/21 06:40:22;;;;;;;;;;;;;;;18.69;62.57;100224.81;7393874;19;1274;-40
2023/12/21 06:42:50;;;;;;;;;;;;;;;18.93;62.15;100228.84;7392686;19;1807;-39
2023/12/21 06:45:18;;;;;;;;;;;;;;;18.94;61.85;100214.47;7392200;19;1616;-39
2023/12/21 06:47:47;;;;;;;;;;;;;;;18.94;61.70;100233.22;7393090;19;1032;-39
2023/12/21 06:50:15;;;;;;;;;;;;;;;18.91;61.85;100228.16;7393461;19;1838;-38
2023/12/21 06:52:44;;;;;;;;;;;;;;;18.93;61.88;100231.53;7387702;19;1839;-39
2023/12/21 06:55:12;;;;;;;;;;;;;;;19.05;61.59;100224.97;7384359;19;1879;-39
2023/12/21 06:57:43;;;;;;;;;;;;;;;19.08;61.45;100239.94;7392131;19;1460;-39
2023/12/21 07:00:12;;;;;;;;;;;;;;;19.16;61.15;100256.09;7392699;19;1779;-38
2023/12/21 07:02:40;;;;;;;;;;;;;;;19.16;61.17;100249.88;7392243;19;1576;-39
2023/12/21 07:05:09;;;;;;;;;;;;;;;19.10;61.30;100253.16;7391640;19;1476;-39
2023/12/21 07:07:37;;;;;;;;;;;;;;;18.90;61.93;100277.38;7392382;19;1214;-38
2023/12/21 07:10:06;;;;;;;;;;;;;;;18.59;62.70;100285.59;7393196;19;1763;-39
2023/12/21 07:12:34;;;;;;;;;;;;;;;18.34;63.23;100283.53;7397456;19;1224;-38
2023/12/21 07:15:06;;;;;;;;;;;;;;;18.16;63.61;100281.56;7396078;19;1798;-39
2023/12/21 07:17:34;;;;;;;;;;;;;;;18.04;63.70;100272.84;7393336;19;2018;-42
2023/12/21 07:20:02;;;;;;;;;;;;;;;18.07;63.76;100271.72;7393883;19;1479;-39
2023/12/21 07:22:30;;;;;;;;;;;;;;;18.33;63.01;100273.81;7395160;19;1136;-38
2023/12/21 07:24:59;;;;;;;;;;;;;;;18.76;61.99;100277.78;7394255;19;1767;-38
2023/12/21 07:27:27;;;;;;;;;;;;;;;18.95;61.43;100283.13;7394651;19;1628;-39
2023/12/21 07:29:55;;;;;;;;;;;;;;;19.00;61.15;100280.84;7394281;19;1750;-39
2023/12/21 07:32:26;;;;;;;;;;;;;;;19.02;61.15;100313.72;7396209;19;1537;-40
2023/12/21 07:34:55;;;;;;;;;;;;;;;19.08;60.67;100275.59;7395611;19;1979;-38
2023/12/21 07:37:23;;;;;;;;;;;;;;;19.19;60.71;100295.16;7393623;19;1912;-39
2023/12/21 07:39:52;;;;;;;;;;;;;;;19.18;60.29;100280.91;7395731;19;1515;-39
2023/12/21 07:42:20;;;;;;;;;;;;;;;19.20;60.23;100292.34;7396839;19;1121;-40
2023/12/21 07:44:48;;;;;;;;;;;;;;;19.13;60.41;100291.22;7395509;19;1586;-40
2023/12/21 07:47:17;;;;;;;;;;;;;;;19.09;60.62;100300.56;7395029;19;1858;-40
2023/12/21 07:49:47;;;;;;;;;;;;;;;18.71;61.34;100315.75;7394317;19;1826;-40
2023/12/21 07:52:16;;;;;;;;;;;;;;;18.40;62.18;100299.00;7395012;19;1751;-39
2023/12/21 07:54:44;;;;;;;;;;;;;;;18.22;62.61;100297.09;7379616;19;1833;-40
2023/12/21 07:57:14;;;;;;;;;;;;;;;18.08;63.02;100298.34;7392109;19;1854;-40
2023/12/21 07:59:42;;;;;;;;;;;;;;;18.04;63.13;100296.06;7393896;19;1845;-40
2023/12/21 08:02:10;;;;;;;;;;;;;;;18.38;62.38;100279.56;7392897;19;1465;-40
2023/12/21 08:04:39;;;;;;;;;;;;;;;18.79;61.30;100285.56;7395271;19;1830;-40
2023/12/21 08:07:09;;;;;;;;;;;;;;;18.94;60.67;100281.44;7394403;19;1495;-40
2023/12/21 08:09:38;;;;;;;;;;;;;;;19.05;60.58;100293.81;7394868;19;1032;-40
2023/12/21 08:12:07;;;;;;;;;;;;;;;19.13;60.27;100285.03;7395385;19;1114;-40
2023/12/21 08:14:36;;;;;;;;;;;;;;;19.19;59.97;100300.53;7395060;19;1584;-40
2023/12/21 08:17:09;;;;;;;;;;;;;;;19.19;59.98;100300.53;7392654;19;1887;-40
2023/12/21 08:19:38;;;;;;;;;;;;;;;19.17;60.00;100289.94;7393669;19;1236;-40
2023/12/21 08:22:06;;;;;;;;;;;;;;;19.14;60.02;100302.78;7393361;19;1735;-40
2023/12/21 08:24:37;;;;;;;;;;;;;;;19.04;60.42;100305.53;7392289;19;1278;-40
2023/12/21 08:27:06;;;;;;;;;;;;;;;18.66;61.31;100294.75;7393942;19;1753;-40
2023/12/21 08:29:34;;;;;;;;;;;;;;;18.39;61.91;100286.63;7393303;19;1557;-40
2023/12/21 08:32:02;;;;;;;;;;;;;;;18.16;62.35;100292.25;7391927;19;1488;-40
2023/12/21 08:34:31;;;;;;;;;;;;;;;18.06;62.76;100280.72;7394752;19;1141;-40
2023/12/21 08:36:59;;;;;;;;;;;;;;;18.15;62.47;100287.91;7393098;19;1873;-40
2023/12/21 08:39:28;;;;;;;;;;;;;;;18.45;61.71;100296.75;7392637;19;1635;-40
2023/12/21 08:41:59;;;;;;;;;;;;;;;18.89;60.44;100286.41;7393687;19;1736;-40
2023/12/21 08:44:27;;;;;;;;;;;;;;;19.03;60.05;100291.25;7393284;19;1095;-39
2023/12/21 08:46:56;;;;;;;;;;;;;;;19.10;59.85;100288.88;7389677;19;1842;-40
2023/12/21 08:49:24;;;;;;;;;;;;;;;19.16;59.71;100300.81;7390693;19;1765;-44
2023/12/21 08:51:53;;;;;;;;;;;;;;;19.17;59.83;100283.75;7394546;19;1009;-40
2023/12/21 08:54:22;;;;;;;;;;;;;;;19.18;59.49;100294.31;7376302;19;1512;-40
2023/12/21 08:56:50;;;;;;;;;;;;;;;18.95;60.31;100298.38;7390966;19;1869;-40
2023/12/21 08:59:25;;;;;;;;;;;;;;;18.59;61.08;100290.97;7391332;19;1817;-40
2023/12/21 09:01:54;;;;;;;;;;;;;;;18.33;61.74;100285.38;7392725;19;1758;-40
2023/12/21 09:04:22;;;;;;;;;;;;;;;18.19;62.06;100283.13;7394055;19;1070;-40
2023/12/21 09:06:51;;;;;;;;;;;;;;;18.11;62.31;100291.03;7392056;19;1854;-40
2023/12/21 09:09:19;;;;;;;;;;;;;;;18.13;62.39;100255.09;7389357;19;1807;-40
2023/12/21 09:11:51;;;;;;;;;;;;;;;18.51;61.44;100279.28;7391343;19;1012;-40
2023/12/21 09:14:22;;;;;;;;;;;;;;;18.92;60.20;100267.34;7390688;19;1838;-40
2023/12/21 09:16:51;;;;;;;;;;;;;;;19.04;59.93;100268.84;7389320;19;1913;-40
2023/12/21 09:19:19;;;;;;;;;;;;;;;19.05;59.73;100256.28;7388728;19;1397;-40
2023/12/21 09:21:48;;;;;;;;;;;;;;;19.10;59.79;100269.22;7390166;19;1792;-40
2023/12/21 09:24:16;;;;;;;;;;;;;;;19.11;59.71;100260.22;7389085;19;1429;-40
2023/12/21 09:26:44;;;;;;;;;;;;;;;18.90;59.93;100245.22;7391545;19;1266;-40
2023/12/21 09:29:13;;;;;;;;;;;;;;;18.66;60.57;100253.72;7392110;19;1396;-40
2023/12/21 09:31:43;;;;;;;;;;;;;;;18.45;61.42;100260.13;7391776;19;1632;-40
2023/12/21 09:34:12;;;;;;;;;;;;;;;18.25;61.58;100232.53;7392679;19;942;-39
2023/12/21 09:36:40;;;;;;;;;;;;;;;18.12;61.96;100249.88;7389716;19;1849;-40
2023/12/21 09:39:11;;;;;;;;;;;;;;;18.21;61.91;100241.84;7390555;19;1926;-40
2023/12/21 09:41:39;;;;;;;;;;;;;;;18.58;61.16;100238.41;7390721;19;1408;-40
2023/12/21 09:44:11;;;;;;;;;;;;;;;18.96;60.04;100239.28;7389702;19;1766;-40
2023/12/21 09:46:40;;;;;;;;;;;;;;;19.11;59.31;100242.28;7390504;19;1569;-40
2023/12/21 09:49:12;;;;;;;;;;;;;;;18.87;60.09;100238.31;7390033;19;1484;-40
2023/12/21 09:51:41;;;;;;;;;;;;;;;18.53;60.77;100231.78;7390040;19;1271;-40
2023/12/21 09:54:10;;;;;;;;;;;;;;;18.26;61.57;100247.63;7374885;19;1392;-40
2023/12/21 09:56:39;;;;;;;;;;;;;;;18.16;61.88;100249.44;7390769;19;1853;-40
2023/12/21 09:59:07;;;;;;;;;;;;;;;18.02;62.15;100237.34;7390392;19;1393;-40
2023/12/21 10:01:36;;;;;;;;;;;;;;;18.31;61.54;100241.84;7390190;19;1254;-40
2023/12/21 10:04:04;;;;;;;;;;;;;;;18.69;60.68;100240.03;7392646;19;988;-40
2023/12/21 10:06:36;;;;;;;;;;;;;;;19.10;59.67;100232.59;7389337;19;1453;-40
2023/12/21 10:09:06;;;;;;;;;;;;;;;19.03;59.50;100223.44;7390357;19;1829;-40
2023/12/21 10:11:34;;;;;;;;;;;;;;;18.69;60.24;100229.34;7389367;19;1401;-39
2023/12/21 10:14:04;;;;;;;;;;;;;;;18.35;61.17;100237.06;7389301;19;1818;-40
2023/12/21 10:16:32;;;;;;;;;;;;;;;18.17;61.43;100212.84;7388423;19;1849;-39
2023/12/21 10:19:00;;;;;;;;;;;;;;;18.06;61.96;100211.16;7390319;19;1366;-39
2023/12/21 10:21:29;;;;;;;;;;;;;;;18.26;61.76;100202.13;7390072;19;1821;-39
2023/12/21 10:23:59;;;;;;;;;;;;;;;18.67;60.60;100180.44;7387636;19;1413;-40
2023/12/21 10:26:28;;;;;;;;;;;;;;;19.03;59.55;100186.75;7390334;19;1553;-40
2023/12/21 10:28:58;;;;;;;;;;;;;;;18.81;59.86;100173.78;7390696;19;1523;-39
2023/12/21 10:31:28;;;;;;;;;;;;;;;18.51;60.65;100169.50;7391087;19;1042;-40
2023/12/21 10:33:57;;;;;;;;;;;;;;;18.32;61.42;100176.59;7390330;19;1870;-40
2023/12/21 10:36:26;;;;;;;;;;;;;;;18.12;61.69;100183.81;7388820;19;1941;-40
2023/12/21 10:38:54;;;;;;;;;;;;;;;18.01;61.92;100179.50;7389642;19;1512;-40
2023/12/21 10:41:26;;;;;;;;;;;;;;;18.68;60.42;100174.06;7390339;19;1783;-40
2023/12/21 10:43:54;;;;;;;;;;;;;;;18.87;59.69;100154.44;7389149;19;1483;-39
2023/12/21 10:46:23;;;;;;;;;;;;;;;19.03;59.36;100157.28;7389666;19;1856;-40
2023/12/21 10:48:51;;;;;;;;;;;;;;;18.77;60.28;100167.84;7389280;19;1266;-40
2023/12/21 10:51:21;;;;;;;;;;;;;;;18.46;60.78;100160.09;7390661;19;1400;-40
2023/12/21 10:53:50;;;;;;;;;;;;;;;18.27;61.24;100160.16;7389022;19;2534;-39
2023/12/21 10:56:21;;;;;;;;;;;;;;;18.14;61.72;100160.44;7383237;19;1428;-40
2023/12/21 10:58:53;;;;;;;;;;;;;;;18.20;61.44;100159.88;7392731;19;1834;-40
2023/12/21 11:01:22;;;;;;;;;;;;;;;18.72;60.15;100137.13;7397207;19;1410;-40
2023/12/21 11:03:50;;;;;;;;;;;;;;;18.78;60.04;100144.56;7396683;19;2050;-40
2023/12/21 11:06:19;;;;;;;;;;;;;;;19.00;59.46;100146.88;7396104;19;1932;-40
2023/12/21 11:08:48;;;;;;;;;;;;;;;18.84;59.84;100138.63;7396241;19;1748;-41
2023/12/21 11:11:21;;;;;;;;;;;;;;;18.56;60.59;100127.91;7396201;19;1767;-39
2023/12/21 11:13:52;;;;;;;;;;;;;;;18.31;61.03;100136.63;7396398;19;1205;-38
2023/12/21 11:16:25;;;;;;;;;;;;;;;18.09;61.48;100141.31;7393503;19;1801;-39
2023/12/21 11:18:54;;;;;;;;;;;;;;;18.16;61.64;100142.41;7392768;19;1839;-38
2023/12/21 11:21:24;;;;;;;;;;;;;;;18.77;60.13;100124.13;7396439;19;1826;-38
2023/12/21 11:23:52;;;;;;;;;;;;;;;18.80;59.86;100118.50;7395218;19;1637;-38
2023/12/21 11:26:25;;;;;;;;;;;;;;;18.81;59.82;100130.91;7395430;19;1499;-38
2023/12/21 11:29:04;;;;;;;;;;;;;;;18.52;60.52;100126.50;7396102;19;1050;-38
2023/12/21 11:31:37;;;;;;;;;;;;;;;18.33;61.12;100142.66;7396198;19;1127;-38
2023/12/21 11:34:12;;;;;;;;;;;;;;;18.11;61.48;100133.16;7396571;19;1094;-38
2023/12/21 11:36:41;;;;;;;;;;;;;;;18.00;61.85;100118.09;7394685;19;1865;-38
2023/12/21 11:39:14;;;;;;;;;;;;;;;18.59;60.45;100116.91;7393840;19;1583;-38
2023/12/21 11:41:52;;;;;;;;;;;;;;;18.78;59.81;100104.38;7395229;19;1759;-38
2023/12/21 11:44:23;;;;;;;;;;;;;;;18.82;59.59;100090.59;7395738;19;1636;-39
2023/12/21 11:46:52;;;;;;;;;;;;;;;18.61;60.10;100098.00;7395605;19;1357;-40
2023/12/21 11:49:24;;;;;;;;;;;;;;;18.35;60.78;100079.94;7395728;19;1225;-40
2023/12/21 11:51:53;;;;;;;;;;;;;;;18.19;61.13;100085.94;7395814;19;1024;-39
2023/12/21 11:54:22;;;;;;;;;;;;;;;18.07;61.36;100090.63;7380617;19;1498;-40
2023/12/21 11:56:51;;;;;;;;;;;;;;;18.45;60.68;100082.59;7394565;19;1869;-40
2023/12/21 11:59:19;;;;;;;;;;;;;;;18.84;59.65;100090.41;7393460;19;1500;-40
2023/12/21 12:01:51;;;;;;;;;;;;;;;19.01;59.10;100076.19;7394174;19;1310;-38
2023/12/21 12:04:19;;;;;;;;;;;;;;;18.85;59.37;100078.72;7395585;19;983;-39
2023/12/21 12:06:49;;;;;;;;;;;;;;;18.63;60.15;100083.47;7392175;19;1640;-40
2023/12/21 12:09:19;;;;;;;;;;;;;;;18.39;60.61;100080.50;7393849;19;1917;-40
2023/12/21 12:11:47;;;;;;;;;;;;;;;18.21;61.03;100070.56;7393416;19;1862;-38
2023/12/21 12:14:16;;;;;;;;;;;;;;;18.20;61.17;100060.84;7393135;19;2620;-38
2023/12/21 12:16:44;;;;;;;;;;;;;;;18.79;59.58;100063.22;7393936;19;1746;-39
2023/12/21 12:19:17;;;;;;;;;;;;;;;18.94;59.32;100056.38;7390395;19;1843;-40
2023/12/21 12:21:45;;;;;;;;;;;;;;;19.21;58.73;100078.75;7395313;19;1727;-40
2023/12/21 12:24:17;;;;;;;;;;;;;;;18.95;59.05;100084.84;7392020;19;1385;-39
2023/12/21 12:26:46;;;;;;;;;;;;;;;18.59;59.82;100079.41;7393401;19;1720;-39
2023/12/21 12:29:16;;;;;;;;;;;;;;;18.33;60.54;100091.81;7392389;19;1392;-39
2023/12/21 12:31:45;;;;;;;;;;;;;;;18.19;60.99;100083.25;7393411;19;1659;-39
2023/12/21 12:34:16;;;;;;;;;;;;;;;18.06;61.36;100077.38;7392553;19;997;-38
2023/12/21 12:36:44;;;;;;;;;;;;;;;18.59;60.11;100078.56;7393870;19;1853;-39
2023/12/21 12:39:13;;;;;;;;;;;;;;;18.93;59.18;100081.47;7390315;19;2575;-39
2023/12/21 12:41:41;;;;;;;;;;;;;;;19.16;58.61;100075.66;7392509;19;1853;-39
2023/12/21 12:44:10;;;;;;;;;;;;;;;19.04;58.80;100081.28;7393323;19;1508;-39
2023/12/21 12:46:39;;;;;;;;;;;;;;;18.67;59.90;100076.81;7392492;19;1507;-39
2023/12/21 12:49:07;;;;;;;;;;;;;;;18.39;60.37;100057.25;7392553;19;1762;-39
2023/12/21 12:51:38;;;;;;;;;;;;;;;18.23;60.79;100052.53;7391487;19;1286;-39
2023/12/21 12:54:09;;;;;;;;;;;;;;;18.16;61.07;100067.47;7391557;19;1511;-39
2023/12/21 12:56:46;;;;;;;;;;;;;;;18.56;60.25;100038.69;7376073;19;1290;-39